sensor_id;sensor_type;location;lat;lon;timestamp;pressure;altitude;pressure_sealevel;temperature
18219;BMP180;9234;49.344;11.120;2022-12-07T00:01:45;97433.00;;;4.40
18219;BMP180;9234;49.344;11.120;2022-12-07T00:04:17;97422.00;;;4.30
18219;BMP180;9234;49.344;11.120;2022-12-07T00:06:51;97410.00;;;4.30
18219;BMP180;9234;49.344;11.120;2022-12-07T00:09:20;97420.00;;;4.30
18219;BMP180;9234;49.344;11.120;2022-12-07T00:11:50;97425.00;;;4.30
18219;BMP180;9234;49.344;11.120;2022-12-07T00:14:19;97411.00;;;4.30
18219;BMP180;9234;49.344;11.120;2022-12-07T00:16:50;97407.00;;;4.30
18219;BMP180;9234;49.344;11.120;2022-12-07T00:19:20;97404.00;;;4.30
18219;BMP180;9234;49.344;11.120;2022-12-07T00:21:48;97409.00;;;4.30
18219;BMP180;9234;49.344;11.120;2022-12-07T00:24:16;97412.00;;;4.20
18219;BMP180;9234;49.344;11.120;2022-12-07T00:26:45;97397.00;;;4.20
18219;BMP180;9234;49.344;11.120;2022-12-07T00:29:16;97398.00;;;4.20
18219;BMP180;9234;49.344;11.120;2022-12-07T00:31:45;97396.00;;;4.20
18219;BMP180;9234;49.344;11.120;2022-12-07T00:34:16;97390.00;;;4.10
18219;BMP180;9234;49.344;11.120;2022-12-07T00:36:47;97407.00;;;4.10
18219;BMP180;9234;49.344;11.120;2022-12-07T00:39:16;97399.00;;;4.10
18219;BMP180;9234;49.344;11.120;2022-12-07T00:41:45;97392.00;;;4.10
18219;BMP180;9234;49.344;11.120;2022-12-07T00:44:13;97398.00;;;4.10
18219;BMP180;9234;49.344;11.120;2022-12-07T00:46:41;97400.00;;;4.00
18219;BMP180;9234;49.344;11.120;2022-12-07T00:49:09;97399.00;;;4.00
18219;BMP180;9234;49.344;11.120;2022-12-07T00:51:37;97408.00;;;4.00
18219;BMP180;9234;49.344;11.120;2022-12-07T00:54:07;97405.00;;;4.00
18219;BMP180;9234;49.344;11.120;2022-12-07T00:56:35;97403.00;;;4.00
18219;BMP180;9234;49.344;11.120;2022-12-07T00:59:04;97401.00;;;4.00
18219;BMP180;9234;49.344;11.120;2022-12-07T01:01:36;97404.00;;;4.00
18219;BMP180;9234;49.344;11.120;2022-12-07T01:04:05;97404.00;;;4.00
18219;BMP180;9234;49.344;11.120;2022-12-07T01:06:33;97409.00;;;4.00
18219;BMP180;9234;49.344;11.120;2022-12-07T01:09:02;97415.00;;;4.00
18219;BMP180;9234;49.344;11.120;2022-12-07T01:11:33;97403.00;;;4.00
18219;BMP180;9234;49.344;11.120;2022-12-07T01:14:01;97417.00;;;4.00
18219;BMP180;9234;49.344;11.120;2022-12-07T01:16:31;97405.00;;;4.00
18219;BMP180;9234;49.344;11.120;2022-12-07T01:19:01;97399.00;;;4.00
18219;BMP180;9234;49.344;11.120;2022-12-07T01:21:34;97412.00;;;4.00
18219;BMP180;9234;49.344;11.120;2022-12-07T01:24:07;97416.00;;;4.00
18219;BMP180;9234;49.344;11.120;2022-12-07T01:26:37;97417.00;;;4.00
18219;BMP180;9234;49.344;11.120;2022-12-07T01:29:05;97414.00;;;4.10
18219;BMP180;9234;49.344;11.120;2022-12-07T01:31:33;97414.00;;;4.10
18219;BMP180;9234;49.344;11.120;2022-12-07T01:34:01;97416.00;;;4.00
18219;BMP180;9234;49.344;11.120;2022-12-07T01:36:34;97411.00;;;4.00
18219;BMP180;9234;49.344;11.120;2022-12-07T01:39:05;97409.00;;;4.10
18219;BMP180;9234;49.344;11.120;2022-12-07T01:41:38;97415.00;;;4.00
18219;BMP180;9234;49.344;11.120;2022-12-07T01:44:21;97411.00;;;4.10
18219;BMP180;9234;49.344;11.120;2022-12-07T01:46:51;97409.00;;;4.10
18219;BMP180;9234;49.344;11.120;2022-12-07T01:49:29;97415.00;;;4.10
18219;BMP180;9234;49.344;11.120;2022-12-07T01:52:12;97406.00;;;4.00
18219;BMP180;9234;49.344;11.120;2022-12-07T01:54:42;97400.00;;;4.00
18219;BMP180;9234;49.344;11.120;2022-12-07T01:57:15;97408.00;;;4.10
18219;BMP180;9234;49.344;11.120;2022-12-07T01:59:45;97409.00;;;4.00
18219;BMP180;9234;49.344;11.120;2022-12-07T02:02:20;97395.00;;;4.00
18219;BMP180;9234;49.344;11.120;2022-12-07T02:04:53;97408.00;;;4.00
18219;BMP180;9234;49.344;11.120;2022-12-07T02:07:23;97401.00;;;4.00
18219;BMP180;9234;49.344;11.120;2022-12-07T02:09:51;97391.00;;;4.00
18219;BMP180;9234;49.344;11.120;2022-12-07T02:12:23;97387.00;;;4.00
18219;BMP180;9234;49.344;11.120;2022-12-07T02:14:52;97397.00;;;4.00
18219;BMP180;9234;49.344;11.120;2022-12-07T02:17:28;97390.00;;;4.00
18219;BMP180;9234;49.344;11.120;2022-12-07T02:20:23;97390.00;;;4.00
18219;BMP180;9234;49.344;11.120;2022-12-07T02:26:37;97410.00;;;4.00
18219;BMP180;9234;49.344;11.120;2022-12-07T02:29:20;97404.00;;;4.00
18219;BMP180;9234;49.344;11.120;2022-12-07T02:32:03;97398.00;;;4.00
18219;BMP180;9234;49.344;11.120;2022-12-07T02:34:44;97401.00;;;4.00
18219;BMP180;9234;49.344;11.120;2022-12-07T02:37:26;97387.00;;;4.00
18219;BMP180;9234;49.344;11.120;2022-12-07T02:40:02;97385.00;;;4.00
18219;BMP180;9234;49.344;11.120;2022-12-07T02:42:37;97384.00;;;4.00
18219;BMP180;9234;49.344;11.120;2022-12-07T02:45:15;97386.00;;;4.00
18219;BMP180;9234;49.344;11.120;2022-12-07T02:47:47;97391.00;;;4.00
18219;BMP180;9234;49.344;11.120;2022-12-07T02:50:18;97393.00;;;4.00
18219;BMP180;9234;49.344;11.120;2022-12-07T02:52:47;97394.00;;;4.00
18219;BMP180;9234;49.344;11.120;2022-12-07T02:55:21;97396.00;;;4.00
18219;BMP180;9234;49.344;11.120;2022-12-07T02:58:13;97396.00;;;4.00
18219;BMP180;9234;49.344;11.120;2022-12-07T03:00:56;97389.00;;;4.00
18219;BMP180;9234;49.344;11.120;2022-12-07T03:03:28;97381.00;;;3.90
18219;BMP180;9234;49.344;11.120;2022-12-07T03:06:13;97390.00;;;3.90
18219;BMP180;9234;49.344;11.120;2022-12-07T03:08:52;97367.00;;;3.90
18219;BMP180;9234;49.344;11.120;2022-12-07T03:11:32;97377.00;;;3.90
18219;BMP180;9234;49.344;11.120;2022-12-07T03:14:13;97379.00;;;3.90
18219;BMP180;9234;49.344;11.120;2022-12-07T03:16:50;97381.00;;;3.90
18219;BMP180;9234;49.344;11.120;2022-12-07T03:19:24;97372.00;;;3.90
18219;BMP180;9234;49.344;11.120;2022-12-07T03:21:57;97377.00;;;3.80
18219;BMP180;9234;49.344;11.120;2022-12-07T03:24:35;97364.00;;;3.70
18219;BMP180;9234;49.344;11.120;2022-12-07T03:27:11;97348.00;;;3.60
18219;BMP180;9234;49.344;11.120;2022-12-07T03:29:47;97351.00;;;3.50
18219;BMP180;9234;49.344;11.120;2022-12-07T03:32:25;97355.00;;;3.40
18219;BMP180;9234;49.344;11.120;2022-12-07T03:35:01;97356.00;;;3.30
18219;BMP180;9234;49.344;11.120;2022-12-07T03:37:35;97357.00;;;3.30
18219;BMP180;9234;49.344;11.120;2022-12-07T03:40:15;97346.00;;;3.20
18219;BMP180;9234;49.344;11.120;2022-12-07T03:42:46;97341.00;;;3.20
18219;BMP180;9234;49.344;11.120;2022-12-07T03:45:16;97346.00;;;3.20
18219;BMP180;9234;49.344;11.120;2022-12-07T03:47:53;97340.00;;;3.20
18219;BMP180;9234;49.344;11.120;2022-12-07T03:50:32;97328.00;;;3.20
18219;BMP180;9234;49.344;11.120;2022-12-07T03:53:09;97322.00;;;3.20
18219;BMP180;9234;49.344;11.120;2022-12-07T03:55:43;97332.00;;;3.20
18219;BMP180;9234;49.344;11.120;2022-12-07T03:58:16;97332.00;;;3.20
18219;BMP180;9234;49.344;11.120;2022-12-07T04:00:46;97322.00;;;3.20
18219;BMP180;9234;49.344;11.120;2022-12-07T04:03:16;97343.00;;;3.20
18219;BMP180;9234;49.344;11.120;2022-12-07T04:05:45;97340.00;;;3.10
18219;BMP180;9234;49.344;11.120;2022-12-07T04:08:13;97344.00;;;3.00
18219;BMP180;9234;49.344;11.120;2022-12-07T04:10:41;97337.00;;;2.90
18219;BMP180;9234;49.344;11.120;2022-12-07T04:13:09;97351.00;;;2.80
18219;BMP180;9234;49.344;11.120;2022-12-07T04:15:38;97336.00;;;2.70
18219;BMP180;9234;49.344;11.120;2022-12-07T04:18:06;97334.00;;;2.60
18219;BMP180;9234;49.344;11.120;2022-12-07T04:20:35;97344.00;;;2.60
18219;BMP180;9234;49.344;11.120;2022-12-07T04:23:04;97341.00;;;2.50
18219;BMP180;9234;49.344;11.120;2022-12-07T04:25:32;97337.00;;;2.40
18219;BMP180;9234;49.344;11.120;2022-12-07T04:28:00;97333.00;;;2.30
18219;BMP180;9234;49.344;11.120;2022-12-07T04:30:28;97312.00;;;2.20
18219;BMP180;9234;49.344;11.120;2022-12-07T04:32:56;97324.00;;;2.20
18219;BMP180;9234;49.344;11.120;2022-12-07T04:35:24;97333.00;;;2.10
18219;BMP180;9234;49.344;11.120;2022-12-07T04:37:54;97327.00;;;2.00
18219;BMP180;9234;49.344;11.120;2022-12-07T04:40:22;97323.00;;;2.00
18219;BMP180;9234;49.344;11.120;2022-12-07T04:42:50;97347.00;;;2.00
18219;BMP180;9234;49.344;11.120;2022-12-07T04:45:18;97340.00;;;1.90
18219;BMP180;9234;49.344;11.120;2022-12-07T04:47:47;97330.00;;;1.90
18219;BMP180;9234;49.344;11.120;2022-12-07T04:50:15;97337.00;;;1.90
18219;BMP180;9234;49.344;11.120;2022-12-07T04:52:43;97340.00;;;1.90
18219;BMP180;9234;49.344;11.120;2022-12-07T04:55:12;97343.00;;;1.90
18219;BMP180;9234;49.344;11.120;2022-12-07T04:57:41;97340.00;;;1.90
18219;BMP180;9234;49.344;11.120;2022-12-07T05:00:10;97336.00;;;2.00
18219;BMP180;9234;49.344;11.120;2022-12-07T05:02:38;97355.00;;;2.00
18219;BMP180;9234;49.344;11.120;2022-12-07T05:05:07;97350.00;;;2.10
18219;BMP180;9234;49.344;11.120;2022-12-07T05:07:35;97349.00;;;2.10
18219;BMP180;9234;49.344;11.120;2022-12-07T05:10:06;97364.00;;;2.10
18219;BMP180;9234;49.344;11.120;2022-12-07T05:12:35;97352.00;;;2.10
18219;BMP180;9234;49.344;11.120;2022-12-07T05:15:05;97349.00;;;2.10
18219;BMP180;9234;49.344;11.120;2022-12-07T05:17:33;97356.00;;;2.20
18219;BMP180;9234;49.344;11.120;2022-12-07T05:20:02;97343.00;;;2.20
18219;BMP180;9234;49.344;11.120;2022-12-07T05:22:30;97343.00;;;2.20
18219;BMP180;9234;49.344;11.120;2022-12-07T05:24:59;97341.00;;;2.30
18219;BMP180;9234;49.344;11.120;2022-12-07T05:27:27;97346.00;;;2.30
18219;BMP180;9234;49.344;11.120;2022-12-07T05:29:56;97352.00;;;2.30
18219;BMP180;9234;49.344;11.120;2022-12-07T05:32:24;97342.00;;;2.40
18219;BMP180;9234;49.344;11.120;2022-12-07T05:34:53;97345.00;;;2.40
18219;BMP180;9234;49.344;11.120;2022-12-07T05:37:21;97352.00;;;2.50
18219;BMP180;9234;49.344;11.120;2022-12-07T05:39:50;97355.00;;;2.50
18219;BMP180;9234;49.344;11.120;2022-12-07T05:42:18;97351.00;;;2.50
18219;BMP180;9234;49.344;11.120;2022-12-07T05:44:46;97356.00;;;2.60
18219;BMP180;9234;49.344;11.120;2022-12-07T05:47:16;97360.00;;;2.60
18219;BMP180;9234;49.344;11.120;2022-12-07T05:49:44;97367.00;;;2.60
18219;BMP180;9234;49.344;11.120;2022-12-07T05:52:13;97369.00;;;2.60
18219;BMP180;9234;49.344;11.120;2022-12-07T05:54:42;97365.00;;;2.70
18219;BMP180;9234;49.344;11.120;2022-12-07T05:57:10;97352.00;;;2.70
18219;BMP180;9234;49.344;11.120;2022-12-07T05:59:38;97341.00;;;2.70
18219;BMP180;9234;49.344;11.120;2022-12-07T06:02:09;97332.00;;;2.70
18219;BMP180;9234;49.344;11.120;2022-12-07T06:04:41;97343.00;;;2.80
18219;BMP180;9234;49.344;11.120;2022-12-07T06:07:13;97346.00;;;2.80
18219;BMP180;9234;49.344;11.120;2022-12-07T06:09:41;97362.00;;;2.80
18219;BMP180;9234;49.344;11.120;2022-12-07T06:12:12;97353.00;;;2.80
18219;BMP180;9234;49.344;11.120;2022-12-07T06:14:58;97347.00;;;2.80
18219;BMP180;9234;49.344;11.120;2022-12-07T06:17:26;97337.00;;;2.80
18219;BMP180;9234;49.344;11.120;2022-12-07T06:19:56;97343.00;;;2.90
18219;BMP180;9234;49.344;11.120;2022-12-07T06:22:24;97342.00;;;2.90
18219;BMP180;9234;49.344;11.120;2022-12-07T06:24:52;97346.00;;;2.90
18219;BMP180;9234;49.344;11.120;2022-12-07T06:27:20;97356.00;;;2.90
18219;BMP180;9234;49.344;11.120;2022-12-07T06:29:48;97344.00;;;2.90
18219;BMP180;9234;49.344;11.120;2022-12-07T06:32:17;97356.00;;;2.90
18219;BMP180;9234;49.344;11.120;2022-12-07T06:34:45;97362.00;;;2.90
18219;BMP180;9234;49.344;11.120;2022-12-07T06:37:15;97343.00;;;2.90
18219;BMP180;9234;49.344;11.120;2022-12-07T06:39:43;97340.00;;;2.90
18219;BMP180;9234;49.344;11.120;2022-12-07T06:42:12;97346.00;;;2.90
18219;BMP180;9234;49.344;11.120;2022-12-07T06:44:40;97354.00;;;2.90
18219;BMP180;9234;49.344;11.120;2022-12-07T06:47:08;97354.00;;;3.00
18219;BMP180;9234;49.344;11.120;2022-12-07T06:49:58;97349.00;;;2.90
18219;BMP180;9234;49.344;11.120;2022-12-07T06:52:28;97347.00;;;3.00
18219;BMP180;9234;49.344;11.120;2022-12-07T06:54:56;97353.00;;;3.00
18219;BMP180;9234;49.344;11.120;2022-12-07T06:57:25;97350.00;;;3.00
18219;BMP180;9234;49.344;11.120;2022-12-07T06:59:53;97352.00;;;3.00
18219;BMP180;9234;49.344;11.120;2022-12-07T07:02:22;97347.00;;;3.00
18219;BMP180;9234;49.344;11.120;2022-12-07T07:04:50;97350.00;;;3.10
18219;BMP180;9234;49.344;11.120;2022-12-07T07:07:18;97344.00;;;3.10
18219;BMP180;9234;49.344;11.120;2022-12-07T07:09:47;97345.00;;;3.10
18219;BMP180;9234;49.344;11.120;2022-12-07T07:12:15;97338.00;;;3.10
18219;BMP180;9234;49.344;11.120;2022-12-07T07:14:44;97342.00;;;3.10
18219;BMP180;9234;49.344;11.120;2022-12-07T07:17:12;97349.00;;;3.20
18219;BMP180;9234;49.344;11.120;2022-12-07T07:19:40;97348.00;;;3.20
18219;BMP180;9234;49.344;11.120;2022-12-07T07:22:08;97346.00;;;3.20
18219;BMP180;9234;49.344;11.120;2022-12-07T07:24:36;97362.00;;;3.20
18219;BMP180;9234;49.344;11.120;2022-12-07T07:27:06;97358.00;;;3.20
18219;BMP180;9234;49.344;11.120;2022-12-07T07:29:34;97354.00;;;3.30
18219;BMP180;9234;49.344;11.120;2022-12-07T07:32:03;97371.00;;;3.30
18219;BMP180;9234;49.344;11.120;2022-12-07T07:34:33;97366.00;;;3.30
18219;BMP180;9234;49.344;11.120;2022-12-07T07:37:01;97365.00;;;3.30
18219;BMP180;9234;49.344;11.120;2022-12-07T07:39:29;97364.00;;;3.40
18219;BMP180;9234;49.344;11.120;2022-12-07T07:41:57;97369.00;;;3.40
18219;BMP180;9234;49.344;11.120;2022-12-07T07:44:28;97364.00;;;3.40
18219;BMP180;9234;49.344;11.120;2022-12-07T07:47:02;97374.00;;;3.50
18219;BMP180;9234;49.344;11.120;2022-12-07T07:49:30;97366.00;;;3.50
18219;BMP180;9234;49.344;11.120;2022-12-07T07:51:58;97363.00;;;3.60
18219;BMP180;9234;49.344;11.120;2022-12-07T07:54:27;97367.00;;;3.60
18219;BMP180;9234;49.344;11.120;2022-12-07T07:56:55;97354.00;;;3.60
18219;BMP180;9234;49.344;11.120;2022-12-07T07:59:24;97372.00;;;3.70
18219;BMP180;9234;49.344;11.120;2022-12-07T08:01:54;97371.00;;;3.70
18219;BMP180;9234;49.344;11.120;2022-12-07T08:04:22;97364.00;;;3.70
18219;BMP180;9234;49.344;11.120;2022-12-07T08:06:50;97377.00;;;3.80
18219;BMP180;9234;49.344;11.120;2022-12-07T08:09:19;97361.00;;;3.80
18219;BMP180;9234;49.344;11.120;2022-12-07T08:11:47;97380.00;;;3.80
18219;BMP180;9234;49.344;11.120;2022-12-07T08:14:15;97377.00;;;3.90
18219;BMP180;9234;49.344;11.120;2022-12-07T08:16:43;97369.00;;;3.90
18219;BMP180;9234;49.344;11.120;2022-12-07T08:19:13;97374.00;;;4.00
18219;BMP180;9234;49.344;11.120;2022-12-07T08:21:41;97375.00;;;4.10
18219;BMP180;9234;49.344;11.120;2022-12-07T08:24:09;97372.00;;;4.10
18219;BMP180;9234;49.344;11.120;2022-12-07T08:26:37;97381.00;;;4.20
18219;BMP180;9234;49.344;11.120;2022-12-07T08:29:06;97376.00;;;4.20
18219;BMP180;9234;49.344;11.120;2022-12-07T08:31:34;97386.00;;;4.30
18219;BMP180;9234;49.344;11.120;2022-12-07T08:34:03;97385.00;;;4.30
18219;BMP180;9234;49.344;11.120;2022-12-07T08:36:32;97391.00;;;4.40
18219;BMP180;9234;49.344;11.120;2022-12-07T08:39:00;97372.00;;;4.40
18219;BMP180;9234;49.344;11.120;2022-12-07T08:41:49;97386.00;;;4.50
18219;BMP180;9234;49.344;11.120;2022-12-07T08:44:17;97384.00;;;4.50
18219;BMP180;9234;49.344;11.120;2022-12-07T08:46:48;97386.00;;;4.60
18219;BMP180;9234;49.344;11.120;2022-12-07T08:49:22;97379.00;;;4.60
18219;BMP180;9234;49.344;11.120;2022-12-07T08:51:54;97375.00;;;4.70
18219;BMP180;9234;49.344;11.120;2022-12-07T08:54:23;97379.00;;;4.80
18219;BMP180;9234;49.344;11.120;2022-12-07T08:56:54;97387.00;;;4.90
18219;BMP180;9234;49.344;11.120;2022-12-07T08:59:27;97371.00;;;4.90
18219;BMP180;9234;49.344;11.120;2022-12-07T09:01:55;97379.00;;;4.90
18219;BMP180;9234;49.344;11.120;2022-12-07T09:04:24;97368.00;;;5.00
18219;BMP180;9234;49.344;11.120;2022-12-07T09:06:54;97358.00;;;5.00
18219;BMP180;9234;49.344;11.120;2022-12-07T09:09:23;97365.00;;;5.10
18219;BMP180;9234;49.344;11.120;2022-12-07T09:11:51;97374.00;;;5.10
18219;BMP180;9234;49.344;11.120;2022-12-07T09:14:19;97354.00;;;5.20
18219;BMP180;9234;49.344;11.120;2022-12-07T09:16:48;97358.00;;;5.20
18219;BMP180;9234;49.344;11.120;2022-12-07T09:19:16;97367.00;;;5.20
18219;BMP180;9234;49.344;11.120;2022-12-07T09:21:44;97377.00;;;5.20
18219;BMP180;9234;49.344;11.120;2022-12-07T09:24:14;97376.00;;;5.20
18219;BMP180;9234;49.344;11.120;2022-12-07T09:26:42;97373.00;;;5.20
18219;BMP180;9234;49.344;11.120;2022-12-07T09:29:11;97373.00;;;5.30
18219;BMP180;9234;49.344;11.120;2022-12-07T09:31:40;97382.00;;;5.20
18219;BMP180;9234;49.344;11.120;2022-12-07T09:34:08;97384.00;;;5.20
18219;BMP180;9234;49.344;11.120;2022-12-07T09:36:36;97384.00;;;5.20
18219;BMP180;9234;49.344;11.120;2022-12-07T09:39:05;97382.00;;;5.20
18219;BMP180;9234;49.344;11.120;2022-12-07T09:41:38;97375.00;;;5.20
18219;BMP180;9234;49.344;11.120;2022-12-07T09:44:12;97374.00;;;5.10
18219;BMP180;9234;49.344;11.120;2022-12-07T09:46:43;97373.00;;;5.10
18219;BMP180;9234;49.344;11.120;2022-12-07T09:49:17;97376.00;;;5.10
18219;BMP180;9234;49.344;11.120;2022-12-07T09:51:46;97370.00;;;5.10
18219;BMP180;9234;49.344;11.120;2022-12-07T09:54:16;97374.00;;;5.20
18219;BMP180;9234;49.344;11.120;2022-12-07T09:56:46;97372.00;;;5.20
18219;BMP180;9234;49.344;11.120;2022-12-07T09:59:18;97380.00;;;5.20
18219;BMP180;9234;49.344;11.120;2022-12-07T10:01:48;97376.00;;;5.20
18219;BMP180;9234;49.344;11.120;2022-12-07T10:04:21;97364.00;;;5.10
18219;BMP180;9234;49.344;11.120;2022-12-07T10:06:50;97366.00;;;5.20
18219;BMP180;9234;49.344;11.120;2022-12-07T10:09:21;97357.00;;;5.20
18219;BMP180;9234;49.344;11.120;2022-12-07T10:12:05;97366.00;;;5.20
18219;BMP180;9234;49.344;11.120;2022-12-07T10:14:37;97359.00;;;5.30
18219;BMP180;9234;49.344;11.120;2022-12-07T10:17:35;97355.00;;;5.20
18219;BMP180;9234;49.344;11.120;2022-12-07T10:20:18;97348.00;;;5.20
18219;BMP180;9234;49.344;11.120;2022-12-07T10:23:01;97348.00;;;5.20
18219;BMP180;9234;49.344;11.120;2022-12-07T10:25:34;97354.00;;;5.20
18219;BMP180;9234;49.344;11.120;2022-12-07T10:28:33;97359.00;;;5.20
18219;BMP180;9234;49.344;11.120;2022-12-07T10:31:17;97354.00;;;5.20
18219;BMP180;9234;49.344;11.120;2022-12-07T10:33:52;97349.00;;;5.20
18219;BMP180;9234;49.344;11.120;2022-12-07T10:36:25;97354.00;;;5.20
18219;BMP180;9234;49.344;11.120;2022-12-07T10:39:01;97346.00;;;5.20
18219;BMP180;9234;49.344;11.120;2022-12-07T10:41:30;97331.00;;;5.20
18219;BMP180;9234;49.344;11.120;2022-12-07T10:44:00;97328.00;;;5.20
18219;BMP180;9234;49.344;11.120;2022-12-07T10:47:13;97338.00;;;5.30
18219;BMP180;9234;49.344;11.120;2022-12-07T10:50:25;97336.00;;;5.40
18219;BMP180;9234;49.344;11.120;2022-12-07T10:53:34;97337.00;;;5.50
18219;BMP180;9234;49.344;11.120;2022-12-07T10:56:33;97330.00;;;5.50
18219;BMP180;9234;49.344;11.120;2022-12-07T10:59:40;97333.00;;;5.50
18219;BMP180;9234;49.344;11.120;2022-12-07T11:02:31;97323.00;;;5.50
18219;BMP180;9234;49.344;11.120;2022-12-07T11:05:14;97309.00;;;5.50
18219;BMP180;9234;49.344;11.120;2022-12-07T11:07:55;97331.00;;;5.50
18219;BMP180;9234;49.344;11.120;2022-12-07T11:10:38;97338.00;;;5.50
18219;BMP180;9234;49.344;11.120;2022-12-07T11:13:24;97327.00;;;5.50
18219;BMP180;9234;49.344;11.120;2022-12-07T11:16:21;97316.00;;;5.40
18219;BMP180;9234;49.344;11.120;2022-12-07T11:22:10;97321.00;;;5.40
18219;BMP180;9234;49.344;11.120;2022-12-07T11:24:49;97319.00;;;5.50
18219;BMP180;9234;49.344;11.120;2022-12-07T11:27:31;97305.00;;;5.50
18219;BMP180;9234;49.344;11.120;2022-12-07T11:30:16;97299.00;;;5.50
18219;BMP180;9234;49.344;11.120;2022-12-07T11:33:10;97314.00;;;5.50
18219;BMP180;9234;49.344;11.120;2022-12-07T11:35:51;97305.00;;;5.50
18219;BMP180;9234;49.344;11.120;2022-12-07T11:38:27;97305.00;;;5.60
18219;BMP180;9234;49.344;11.120;2022-12-07T11:41:02;97305.00;;;5.60
18219;BMP180;9234;49.344;11.120;2022-12-07T11:44:00;97311.00;;;5.60
18219;BMP180;9234;49.344;11.120;2022-12-07T11:46:49;97305.00;;;5.70
18219;BMP180;9234;49.344;11.120;2022-12-07T11:49:27;97311.00;;;5.70
18219;BMP180;9234;49.344;11.120;2022-12-07T11:52:04;97302.00;;;5.80
18219;BMP180;9234;49.344;11.120;2022-12-07T11:54:40;97291.00;;;5.80
18219;BMP180;9234;49.344;11.120;2022-12-07T11:57:17;97302.00;;;5.90
18219;BMP180;9234;49.344;11.120;2022-12-07T11:59:52;97297.00;;;6.00
18219;BMP180;9234;49.344;11.120;2022-12-07T12:02:34;97293.00;;;6.10
18219;BMP180;9234;49.344;11.120;2022-12-07T12:05:16;97292.00;;;6.20
18219;BMP180;9234;49.344;11.120;2022-12-07T12:07:50;97280.00;;;6.20
18219;BMP180;9234;49.344;11.120;2022-12-07T12:10:55;97278.00;;;6.20
18219;BMP180;9234;49.344;11.120;2022-12-07T12:14:08;97278.00;;;6.20
18219;BMP180;9234;49.344;11.120;2022-12-07T12:17:42;97286.00;;;6.20
18219;BMP180;9234;49.344;11.120;2022-12-07T12:20:26;97277.00;;;6.20
18219;BMP180;9234;49.344;11.120;2022-12-07T12:23:04;97274.00;;;6.20
18219;BMP180;9234;49.344;11.120;2022-12-07T12:25:41;97276.00;;;6.30
18219;BMP180;9234;49.344;11.120;2022-12-07T12:28:23;97296.00;;;6.30
18219;BMP180;9234;49.344;11.120;2022-12-07T12:31:13;97268.00;;;6.30
18219;BMP180;9234;49.344;11.120;2022-12-07T12:33:47;97265.00;;;6.30
18219;BMP180;9234;49.344;11.120;2022-12-07T12:36:24;97263.00;;;6.30
18219;BMP180;9234;49.344;11.120;2022-12-07T12:39:15;97266.00;;;6.30
18219;BMP180;9234;49.344;11.120;2022-12-07T12:41:57;97273.00;;;6.40
18219;BMP180;9234;49.344;11.120;2022-12-07T12:47:43;97269.00;;;6.30
18219;BMP180;9234;49.344;11.120;2022-12-07T12:50:23;97256.00;;;6.30
18219;BMP180;9234;49.344;11.120;2022-12-07T12:53:02;97245.00;;;6.30
18219;BMP180;9234;49.344;11.120;2022-12-07T12:58:44;97262.00;;;6.30
18219;BMP180;9234;49.344;11.120;2022-12-07T13:01:46;97242.00;;;6.20
18219;BMP180;9234;49.344;11.120;2022-12-07T13:04:48;97249.00;;;6.10
18219;BMP180;9234;49.344;11.120;2022-12-07T13:08:02;97244.00;;;6.00
18219;BMP180;9234;49.344;11.120;2022-12-07T13:10:43;97261.00;;;6.00
18219;BMP180;9234;49.344;11.120;2022-12-07T13:13:35;97249.00;;;6.00
18219;BMP180;9234;49.344;11.120;2022-12-07T13:16:49;97244.00;;;5.90
18219;BMP180;9234;49.344;11.120;2022-12-07T13:19:57;97239.00;;;5.90
18219;BMP180;9234;49.344;11.120;2022-12-07T13:22:44;97237.00;;;5.80
18219;BMP180;9234;49.344;11.120;2022-12-07T13:25:30;97243.00;;;5.70
18219;BMP180;9234;49.344;11.120;2022-12-07T13:28:09;97255.00;;;5.70
18219;BMP180;9234;49.344;11.120;2022-12-07T13:30:47;97235.00;;;5.60
18219;BMP180;9234;49.344;11.120;2022-12-07T13:33:18;97247.00;;;5.60
18219;BMP180;9234;49.344;11.120;2022-12-07T13:35:46;97232.00;;;5.50
18219;BMP180;9234;49.344;11.120;2022-12-07T13:38:27;97240.00;;;5.50
18219;BMP180;9234;49.344;11.120;2022-12-07T13:41:14;97243.00;;;5.50
18219;BMP180;9234;49.344;11.120;2022-12-07T13:43:45;97254.00;;;5.50
18219;BMP180;9234;49.344;11.120;2022-12-07T13:46:18;97246.00;;;5.50
18219;BMP180;9234;49.344;11.120;2022-12-07T13:48:48;97248.00;;;5.40
18219;BMP180;9234;49.344;11.120;2022-12-07T13:51:21;97257.00;;;5.40
18219;BMP180;9234;49.344;11.120;2022-12-07T13:53:52;97242.00;;;5.40
18219;BMP180;9234;49.344;11.120;2022-12-07T13:56:28;97245.00;;;5.40
18219;BMP180;9234;49.344;11.120;2022-12-07T13:58:59;97229.00;;;5.40
18219;BMP180;9234;49.344;11.120;2022-12-07T14:01:30;97240.00;;;5.40
18219;BMP180;9234;49.344;11.120;2022-12-07T14:04:30;97242.00;;;5.40
18219;BMP180;9234;49.344;11.120;2022-12-07T14:07:15;97248.00;;;5.40
18219;BMP180;9234;49.344;11.120;2022-12-07T14:09:59;97253.00;;;5.40
18219;BMP180;9234;49.344;11.120;2022-12-07T14:12:31;97252.00;;;5.40
18219;BMP180;9234;49.344;11.120;2022-12-07T14:15:02;97260.00;;;5.40
18219;BMP180;9234;49.344;11.120;2022-12-07T14:17:31;97245.00;;;5.40
18219;BMP180;9234;49.344;11.120;2022-12-07T14:20:01;97242.00;;;5.30
18219;BMP180;9234;49.344;11.120;2022-12-07T14:22:32;97262.00;;;5.30
18219;BMP180;9234;49.344;11.120;2022-12-07T14:25:19;97255.00;;;5.30
18219;BMP180;9234;49.344;11.120;2022-12-07T14:27:54;97261.00;;;5.30
18219;BMP180;9234;49.344;11.120;2022-12-07T14:30:27;97247.00;;;5.30
18219;BMP180;9234;49.344;11.120;2022-12-07T14:32:59;97238.00;;;5.30
18219;BMP180;9234;49.344;11.120;2022-12-07T14:35:29;97228.00;;;5.40
18219;BMP180;9234;49.344;11.120;2022-12-07T14:37:58;97227.00;;;5.30
18219;BMP180;9234;49.344;11.120;2022-12-07T14:40:29;97228.00;;;5.30
18219;BMP180;9234;49.344;11.120;2022-12-07T14:43:03;97231.00;;;5.30
18219;BMP180;9234;49.344;11.120;2022-12-07T14:45:33;97243.00;;;5.30
18219;BMP180;9234;49.344;11.120;2022-12-07T14:48:02;97231.00;;;5.20
18219;BMP180;9234;49.344;11.120;2022-12-07T14:50:53;97227.00;;;5.20
18219;BMP180;9234;49.344;11.120;2022-12-07T14:53:45;97246.00;;;5.20
18219;BMP180;9234;49.344;11.120;2022-12-07T14:56:21;97235.00;;;5.20
18219;BMP180;9234;49.344;11.120;2022-12-07T14:58:50;97239.00;;;5.20
18219;BMP180;9234;49.344;11.120;2022-12-07T15:01:19;97232.00;;;5.20
18219;BMP180;9234;49.344;11.120;2022-12-07T15:03:47;97230.00;;;5.20
18219;BMP180;9234;49.344;11.120;2022-12-07T15:06:17;97223.00;;;5.10
18219;BMP180;9234;49.344;11.120;2022-12-07T15:08:46;97223.00;;;5.10
18219;BMP180;9234;49.344;11.120;2022-12-07T15:11:16;97226.00;;;5.10
18219;BMP180;9234;49.344;11.120;2022-12-07T15:13:44;97226.00;;;5.10
18219;BMP180;9234;49.344;11.120;2022-12-07T15:16:32;97218.00;;;5.10